Purdys Mills, New York
Current Conditions -  °F | °C
As of 4:53 PM on Saturday 25 Oct 2014 (Local Time) from KPBG Reporting Station
Light Rain Light Rain  
Wind Chill: 53°   Ceiling: 6000
Heat Index: 53°   Visibility: 9mi
Dew Point: 48°   Wind: 0mph
Humidity: 83%   Direction: NA
Pressure: 29.53"   Gusts: NA
Location:  44.8543°N, 73.663°W
Report Text: KPBG 252053Z AUTO 00000KT 9SM -RA SCT044 BKN060 OVC090 12/09 A2953 RMK AO2 RAB34 SLP000 P0001 60001 T01170089 58022
Loading
Personal Weather Stations






























Interactive Weather Map
Tropical Storm Tracking
New forecast layout! Learn more

10-Day Weather Forecast

Advertisements
Track Severe Weather on mobile